Time;durP1;ratioP1;P1;durP2;ratioP2;P2;SDS_P1;SDS_P2;PMS_P1;PMS_P2;Temp;Humidity;BMP_temperature;BMP_pressure;BME280_temperature;BME280_humidity;BME280_pressure;Samples;Min_cycle;Max_cycle;Signal;HPM_P1;HPM_P2
2023/12/13 00:00:49;;;;;;;2.13;1.17;;;;;;;10.13;77.74;94811.09;5018347;28;20422;-67
2023/12/13 00:03:15;;;;;;;2.30;0.93;;;;;;;10.17;76.54;94824.81;5027885;28;20176;-69
2023/12/13 00:05:40;;;;;;;1.97;1.00;;;;;;;10.09;76.33;94824.50;5025951;28;20164;-70
2023/12/13 00:08:05;;;;;;;4.97;0.97;;;;;;;10.04;76.44;94826.56;5014891;28;20567;-68
2023/12/13 00:10:31;;;;;;;3.67;0.90;;;;;;;10.10;75.80;94826.16;5008281;28;20180;-68
2023/12/13 00:12:56;;;;;;;2.33;1.20;;;;;;;9.99;76.16;94826.88;5008500;28;20222;-67
2023/12/13 00:15:23;;;;;;;1.83;1.10;;;;;;;10.04;75.55;94827.44;4989286;28;20254;-69
2023/12/13 00:17:49;;;;;;;1.30;0.90;;;;;;;9.96;76.09;94822.69;4988621;28;20224;-69
2023/12/13 00:20:14;;;;;;;1.37;1.10;;;;;;;10.02;75.61;94825.88;4989696;28;21064;-69
2023/12/13 00:22:40;;;;;;;2.50;0.80;;;;;;;10.01;75.87;94829.41;4989608;28;20419;-68
2023/12/13 00:25:05;;;;;;;1.20;0.90;;;;;;;9.99;75.56;94831.28;4989255;28;20205;-69
2023/12/13 00:27:31;;;;;;;1.77;0.90;;;;;;;9.95;75.51;94834.13;4988704;28;20204;-70
2023/12/13 00:29:56;;;;;;;1.67;0.90;;;;;;;9.90;75.85;94832.75;4988759;28;20180;-68
2023/12/13 00:32:22;;;;;;;2.23;0.93;;;;;;;9.90;75.83;94836.22;4988732;28;20544;-68
2023/12/13 00:34:47;;;;;;;1.77;1.20;;;;;;;9.91;76.17;94837.88;4988864;28;20175;-68
2023/12/13 00:37:12;;;;;;;2.73;1.10;;;;;;;9.80;76.69;94824.63;4988699;28;20192;-68
2023/12/13 00:39:38;;;;;;;4.93;1.10;;;;;;;9.74;77.09;94833.75;4989119;28;20173;-68
2023/12/13 00:42:04;;;;;;;1.10;0.90;;;;;;;9.75;77.03;94837.22;4989141;28;20248;-68
2023/12/13 00:44:29;;;;;;;1.77;1.00;;;;;;;9.76;77.29;94833.66;4990204;28;20173;-69
2023/12/13 00:46:55;;;;;;;1.43;1.10;;;;;;;9.74;77.13;94840.78;4988273;28;20264;-68
2023/12/13 00:49:21;;;;;;;1.50;1.10;;;;;;;9.64;77.84;94840.53;4989159;28;20177;-68
2023/12/13 00:51:47;;;;;;;1.70;1.27;;;;;;;9.60;78.10;94838.22;4988527;28;20259;-68
2023/12/13 00:54:12;;;;;;;2.90;1.30;;;;;;;9.72;77.08;94834.81;4988608;28;20503;-68
2023/12/13 00:56:37;;;;;;;4.50;1.13;;;;;;;9.68;76.25;94843.78;4987935;28;20217;-69
2023/12/13 00:59:03;;;;;;;4.83;1.63;;;;;;;9.67;75.63;94839.50;4988190;28;20184;-67
2023/12/13 01:01:28;;;;;;;1.50;0.93;;;;;;;9.69;75.50;94837.63;4988120;28;20246;-69
2023/12/13 01:03:53;;;;;;;4.40;0.90;;;;;;;9.65;75.16;94841.38;4988169;28;20742;-68
2023/12/13 01:06:19;;;;;;;1.73;0.80;;;;;;;9.67;74.48;94836.88;4986444;28;20176;-69
2023/12/13 01:08:44;;;;;;;1.00;0.60;;;;;;;9.71;74.12;94833.13;4988274;28;20197;-67
2023/12/13 01:11:10;;;;;;;1.63;0.90;;;;;;;9.68;73.83;94835.94;4988212;28;20173;-68
2023/12/13 01:13:36;;;;;;;1.70;0.90;;;;;;;9.61;74.48;94834.66;4996301;28;20977;-68
2023/12/13 01:16:02;;;;;;;3.17;0.80;;;;;;;9.68;74.30;94833.31;5007420;28;20204;-68
2023/12/13 01:18:27;;;;;;;2.40;0.90;;;;;;;9.63;74.30;94833.63;5007353;28;20894;-69
2023/12/13 01:20:53;;;;;;;1.10;0.73;;;;;;;9.56;74.61;94836.75;5007230;28;20174;-67
2023/12/13 01:23:18;;;;;;;1.40;0.97;;;;;;;9.50;74.61;94838.81;5007476;28;20546;-67
2023/12/13 01:25:44;;;;;;;1.30;0.67;;;;;;;9.49;75.02;94839.75;5007781;28;20179;-68
2023/12/13 01:28:09;;;;;;;1.30;0.80;;;;;;;9.52;74.91;94831.72;5008808;28;20196;-67
2023/12/13 01:30:34;;;;;;;1.37;0.90;;;;;;;9.50;75.19;94837.97;5007904;28;20525;-69
2023/12/13 01:33:00;;;;;;;2.90;1.00;;;;;;;9.51;75.08;94829.19;5007607;28;20168;-69
2023/12/13 01:35:25;;;;;;;3.00;0.90;;;;;;;9.47;75.10;94836.41;5007901;28;20254;-69
2023/12/13 01:37:51;;;;;;;3.63;1.10;;;;;;;9.43;75.18;94841.94;5007539;28;20192;-69
2023/12/13 01:40:16;;;;;;;1.20;0.70;;;;;;;9.47;75.37;94835.53;5007568;28;20262;-68
2023/12/13 01:42:41;;;;;;;1.57;1.00;;;;;;;9.43;75.36;94828.84;5007501;28;20180;-68
2023/12/13 01:45:08;;;;;;;2.50;0.97;;;;;;;9.42;75.77;94835.00;5005430;28;20164;-68
2023/12/13 01:47:34;;;;;;;1.80;0.90;;;;;;;9.39;75.74;94836.03;5006702;28;20203;-69
2023/12/13 01:50:00;;;;;;;2.23;1.00;;;;;;;9.37;75.94;94832.69;5007056;28;20418;-68
2023/12/13 01:52:25;;;;;;;2.63;1.10;;;;;;;9.30;76.46;94841.88;5006959;28;21075;-68
2023/12/13 01:54:52;;;;;;;1.67;1.00;;;;;;;9.38;76.07;94843.97;5006807;28;20537;-67
2023/12/13 01:57:18;;;;;;;1.20;0.90;;;;;;;9.32;76.24;94840.81;5006618;28;20196;-68
2023/12/13 01:59:43;;;;;;;1.10;0.80;;;;;;;9.29;76.48;94840.19;5007173;28;20934;-68
2023/12/13 02:02:10;;;;;;;2.87;1.10;;;;;;;9.27;76.11;94836.84;5006901;28;20534;-68
2023/12/13 02:04:37;;;;;;;1.40;0.90;;;;;;;9.40;75.98;94839.50;5007209;28;20180;-67
2023/12/13 02:07:03;;;;;;;1.90;0.97;;;;;;;9.37;76.23;94831.84;5006297;28;21267;-67
2023/12/13 02:09:28;;;;;;;4.43;1.00;;;;;;;9.25;76.65;94834.31;5006911;28;20539;-68
2023/12/13 02:11:53;;;;;;;1.57;1.00;;;;;;;9.23;76.59;94830.09;5006926;28;20180;-67
2023/12/13 02:14:19;;;;;;;3.00;1.20;;;;;;;9.18;76.65;94821.72;4994902;28;20188;-68
2023/12/13 02:16:44;;;;;;;1.23;0.93;;;;;;;9.15;77.34;94821.91;5000243;28;20219;-68
2023/12/13 02:21:45;;;;;;;15.27;1.60;;;;;;;9.21;76.72;94821.50;5002945;26;20231;-69
2023/12/13 02:24:11;;;;;;;1.33;0.90;;;;;;;9.02;77.24;94804.34;5006661;28;20426;-69
2023/12/13 02:26:43;;;;;;;1.13;0.93;;;;;;;9.05;76.78;94819.06;5006917;28;20272;-68
2023/12/13 02:29:09;;;;;;;2.33;1.00;;;;;;;9.00;76.90;94811.50;5006317;28;20173;-69
2023/12/13 02:31:35;;;;;;;2.93;1.20;;;;;;;8.98;77.04;94809.91;5007352;28;20439;-68
2023/12/13 02:34:01;;;;;;;4.03;1.00;;;;;;;9.03;76.80;94807.84;5009885;28;20457;-68
2023/12/13 02:36:26;;;;;;;1.53;1.43;;;;;;;9.02;76.89;94811.38;5010344;28;20470;-69
2023/12/13 02:38:51;;;;;;;4.43;1.17;;;;;;;8.93;77.16;94804.97;5010106;28;20237;-70
2023/12/13 02:41:17;;;;;;;3.10;1.67;;;;;;;8.69;78.08;94809.94;5010060;28;20311;-70
2023/12/13 02:43:42;;;;;;;1.70;1.37;;;;;;;8.77;77.19;94794.63;5010087;28;20218;-70
2023/12/13 02:46:08;;;;;;;3.70;1.30;;;;;;;8.58;78.05;94804.53;5008610;28;20254;-70
2023/12/13 02:48:33;;;;;;;4.13;1.17;;;;;;;8.56;77.90;94807.25;5010522;28;20168;-70
2023/12/13 02:50:58;;;;;;;2.80;1.20;;;;;;;8.57;78.42;94808.06;5010053;28;20203;-70
2023/12/13 02:53:24;;;;;;;1.47;1.10;;;;;;;8.58;77.93;94812.38;5006195;28;20192;-71
2023/12/13 02:55:49;;;;;;;3.60;1.27;;;;;;;8.69;77.22;94805.56;4990139;28;20263;-70
2023/12/13 02:58:15;;;;;;;3.00;1.10;;;;;;;8.71;77.90;94812.47;4990639;28;20531;-70
2023/12/13 03:00:41;;;;;;;1.60;1.00;;;;;;;8.63;77.61;94805.94;4989873;28;20279;-70
2023/12/13 03:03:08;;;;;;;1.97;1.00;;;;;;;8.63;78.13;94808.53;4990352;28;20181;-70
2023/12/13 03:05:33;;;;;;;6.40;1.30;;;;;;;8.70;77.99;94803.78;4990289;28;20177;-70
2023/12/13 03:07:58;;;;;;;5.60;2.20;;;;;;;8.80;77.37;94793.59;4990583;28;20414;-70
2023/12/13 03:10:25;;;;;;;3.53;1.00;;;;;;;8.75;77.56;94793.88;4990058;28;20270;-69
2023/12/13 03:12:51;;;;;;;2.33;0.90;;;;;;;8.78;76.85;94787.59;4990068;28;20192;-70
2023/12/13 03:15:16;;;;;;;1.30;0.90;;;;;;;8.71;77.23;94783.69;4989973;28;20459;-70
2023/12/13 03:17:41;;;;;;;3.67;1.40;;;;;;;8.83;76.90;94775.06;4990118;28;20700;-70
2023/12/13 03:20:08;;;;;;;2.03;1.00;;;;;;;8.86;76.44;94767.06;5000801;28;20332;-69
2023/12/13 03:22:34;;;;;;;3.33;1.10;;;;;;;8.84;76.39;94758.47;5009601;28;20708;-70
2023/12/13 03:24:59;;;;;;;4.10;1.00;;;;;;;8.71;76.76;94752.31;5009873;28;20407;-70
2023/12/13 03:27:24;;;;;;;2.30;1.00;;;;;;;8.62;77.44;94746.72;5009848;28;20191;-69
2023/12/13 03:29:50;;;;;;;3.80;1.10;;;;;;;8.61;77.14;94745.03;5009397;28;20654;-70
2023/12/13 03:32:15;;;;;;;1.20;1.00;;;;;;;8.52;77.31;94740.38;5009447;28;20180;-69
2023/12/13 03:34:41;;;;;;;10.23;1.40;;;;;;;8.59;77.27;94731.22;5009125;28;20174;-68
2023/12/13 03:37:06;;;;;;;1.93;1.27;;;;;;;8.49;78.03;94737.97;5009435;28;20751;-69
2023/12/13 03:39:33;;;;;;;1.60;1.13;;;;;;;8.48;77.89;94739.75;5009032;28;20183;-69
2023/12/13 03:41:58;;;;;;;3.10;1.27;;;;;;;8.56;77.76;94736.66;5009438;28;20180;-71
2023/12/13 03:44:23;;;;;;;2.70;1.20;;;;;;;8.41;78.05;94740.19;5006897;28;20414;-71
2023/12/13 03:46:49;;;;;;;2.33;1.40;;;;;;;8.39;77.94;94744.69;5009667;28;20864;-69
2023/12/13 03:49:16;;;;;;;3.60;1.47;;;;;;;8.24;78.07;94754.28;5009227;28;20574;-68
2023/12/13 03:51:45;;;;;;;1.73;1.10;;;;;;;8.07;79.34;94753.53;5009270;28;20628;-70
2023/12/13 03:54:12;;;;;;;4.00;1.10;;;;;;;8.13;79.04;94754.13;5009053;28;20862;-70
2023/12/13 03:56:37;;;;;;;1.40;1.00;;;;;;;7.76;81.16;94758.91;5009197;28;20466;-70
2023/12/13 03:59:02;;;;;;;1.70;1.20;;;;;;;7.68;81.60;94762.00;5009291;28;20781;-70
2023/12/13 04:01:28;;;;;;;1.23;1.10;;;;;;;7.87;80.56;94771.34;5012082;28;20212;-70
2023/12/13 04:03:53;;;;;;;2.60;1.00;;;;;;;8.11;79.79;94759.44;5009117;28;20594;-70
2023/12/13 04:06:18;;;;;;;3.00;0.97;;;;;;;8.28;79.19;94764.47;5009106;28;20171;-70
2023/12/13 04:08:44;;;;;;;1.40;1.00;;;;;;;8.33;78.87;94760.72;5009028;28;20725;-70
2023/12/13 04:11:09;;;;;;;4.40;0.87;;;;;;;8.40;78.91;94749.00;5008340;28;20195;-70
2023/12/13 04:13:34;;;;;;;3.03;1.30;;;;;;;8.47;79.11;94745.91;5008694;28;20183;-70
2023/12/13 04:16:00;;;;;;;3.77;1.40;;;;;;;8.47;79.35;94742.44;5008866;28;20236;-69
2023/12/13 04:18:25;;;;;;;1.67;0.80;;;;;;;8.40;79.04;94736.75;5009245;28;20234;-70
2023/12/13 04:20:51;;;;;;;2.60;0.97;;;;;;;8.36;78.72;94735.25;5009274;28;20642;-69
2023/12/13 04:23:16;;;;;;;1.57;1.00;;;;;;;8.42;78.83;94734.06;5009763;28;20175;-70
2023/12/13 04:25:41;;;;;;;2.47;0.93;;;;;;;8.44;79.06;94732.19;5009001;28;20186;-70
2023/12/13 04:28:07;;;;;;;2.40;0.90;;;;;;;8.54;78.34;94743.75;5000862;28;20654;-68
2023/12/13 04:30:32;;;;;;;4.30;1.07;;;;;;;8.46;79.31;94741.63;4989657;28;20201;-71
2023/12/13 04:32:58;;;;;;;2.40;1.03;;;;;;;8.52;78.46;94735.16;4990087;28;20693;-69
2023/12/13 04:35:23;;;;;;;2.27;1.27;;;;;;;8.55;78.36;94739.34;4988718;28;20228;-70
2023/12/13 04:37:49;;;;;;;5.00;1.17;;;;;;;8.59;78.89;94740.84;4989091;28;20172;-70
2023/12/13 04:40:14;;;;;;;1.80;1.33;;;;;;;8.64;78.35;94737.00;4988571;28;20197;-71
2023/12/13 04:42:40;;;;;;;3.20;1.00;;;;;;;8.60;78.94;94737.31;4988715;28;20204;-69
2023/12/13 04:45:05;;;;;;;1.53;1.00;;;;;;;8.67;78.17;94734.22;4989931;28;20519;-70
2023/12/13 04:47:31;;;;;;;3.60;1.43;;;;;;;8.77;78.47;94729.22;4988570;28;20640;-70
2023/12/13 04:49:56;;;;;;;3.20;1.40;;;;;;;8.67;78.33;94728.97;4988424;28;20288;-70
2023/12/13 04:52:21;;;;;;;3.17;1.90;;;;;;;8.69;78.49;94732.34;4989068;28;20235;-69
2023/12/13 04:54:47;;;;;;;3.77;1.47;;;;;;;8.83;78.16;94722.75;4988616;28;20179;-71
2023/12/13 04:57:12;;;;;;;2.60;1.40;;;;;;;8.95;78.17;94721.13;4988871;28;20216;-71
2023/12/13 04:59:37;;;;;;;2.00;1.20;;;;;;;8.97;78.47;94714.03;4988571;28;20197;-69
2023/12/13 05:02:03;;;;;;;5.30;1.80;;;;;;;9.01;78.56;94710.28;4990127;28;20196;-70
2023/12/13 05:04:28;;;;;;;4.50;1.57;;;;;;;8.89;79.01;94710.13;5005404;28;20176;-69
2023/12/13 05:06:53;;;;;;;4.20;1.37;;;;;;;8.89;79.07;94697.06;4990153;28;20175;-71
2023/12/13 05:09:19;;;;;;;2.70;1.77;;;;;;;8.91;79.37;94681.25;4990120;28;20180;-71
2023/12/13 05:11:44;;;;;;;2.93;1.13;;;;;;;9.13;77.93;94693.78;4990026;28;20719;-70
2023/12/13 05:14:09;;;;;;;3.10;1.67;;;;;;;8.96;78.47;94683.59;4996708;28;20173;-70
2023/12/13 05:16:35;;;;;;;4.50;1.70;;;;;;;9.01;78.61;94684.13;5002282;28;20265;-70
2023/12/13 05:19:00;;;;;;;3.50;1.73;;;;;;;8.99;79.32;94692.06;5003492;28;20169;-69
2023/12/13 05:21:26;;;;;;;3.50;1.83;;;;;;;8.75;79.78;94688.41;4995207;28;20258;-70
2023/12/13 05:23:52;;;;;;;3.07;1.80;;;;;;;8.74;80.26;94681.50;4988311;28;20215;-69
2023/12/13 05:26:17;;;;;;;4.77;1.90;;;;;;;8.68;79.97;94683.56;4988482;28;20175;-70
2023/12/13 05:28:43;;;;;;;3.50;1.73;;;;;;;8.75;80.21;94680.56;5001570;28;20183;-69
2023/12/13 05:31:18;;;;;;;3.60;1.90;;;;;;;8.80;80.03;94681.13;5007323;28;20196;-70
2023/12/13 05:33:44;;;;;;;3.77;2.20;;;;;;;8.60;80.52;94678.00;5007623;28;20435;-70
2023/12/13 05:36:09;;;;;;;2.33;1.97;;;;;;;8.82;79.96;94680.06;5007403;28;20661;-70
2023/12/13 05:38:34;;;;;;;3.80;2.50;;;;;;;8.54;80.75;94686.22;5007496;28;20299;-69
2023/12/13 05:41:00;;;;;;;4.27;2.30;;;;;;;8.52;80.67;94689.88;5007842;28;20192;-70
2023/12/13 05:43:25;;;;;;;4.40;2.70;;;;;;;8.61;80.17;94679.66;5008212;28;20535;-70
2023/12/13 05:45:51;;;;;;;7.10;3.03;;;;;;;8.43;80.61;94683.44;4992025;28;20176;-71
2023/12/13 05:48:16;;;;;;;2.73;2.53;;;;;;;8.40;81.34;94691.50;4988368;28;20207;-70
2023/12/13 05:50:41;;;;;;;4.03;2.07;;;;;;;8.44;80.97;94691.19;4987984;28;20216;-69
2023/12/13 05:53:07;;;;;;;2.50;2.27;;;;;;;8.51;79.94;94686.44;4988262;28;20184;-69
2023/12/13 05:55:32;;;;;;;4.97;2.90;;;;;;;8.49;80.69;94696.13;4987687;28;20209;-70
2023/12/13 05:57:57;;;;;;;2.80;2.27;;;;;;;8.42;80.11;94700.06;4987885;28;20176;-69
2023/12/13 06:00:23;;;;;;;3.13;2.50;;;;;;;8.50;80.17;94699.59;4987151;28;20192;-71
2023/12/13 06:02:49;;;;;;;5.70;3.17;;;;;;;8.50;80.14;94703.03;4987920;28;20208;-70
2023/12/13 06:05:14;;;;;;;9.13;2.40;;;;;;;8.42;80.69;94705.31;4970230;28;20183;-70
2023/12/13 06:07:40;;;;;;;5.53;2.83;;;;;;;8.43;80.83;94702.59;4990608;28;20412;-70
2023/12/13 06:10:05;;;;;;;4.43;2.60;;;;;;;8.47;80.35;94696.22;4991106;28;20668;-71
2023/12/13 06:12:31;;;;;;;5.33;2.13;;;;;;;8.35;80.80;94696.13;4991410;28;20188;-70
2023/12/13 06:14:58;;;;;;;3.00;2.70;;;;;;;8.36;80.87;94695.19;4991660;28;20180;-70
2023/12/13 06:17:23;;;;;;;3.60;2.97;;;;;;;8.39;80.68;94695.84;4991804;28;20176;-70
2023/12/13 06:19:48;;;;;;;3.50;2.63;;;;;;;8.42;79.97;94687.00;4991489;28;21089;-69
2023/12/13 06:22:14;;;;;;;4.17;3.00;;;;;;;8.44;80.09;94688.59;4991336;28;20207;-70
2023/12/13 06:24:39;;;;;;;6.00;2.60;;;;;;;8.40;80.84;94694.94;4991240;28;20183;-70
2023/12/13 06:27:04;;;;;;;3.90;3.13;;;;;;;8.50;80.68;94689.97;4991480;28;20172;-71
2023/12/13 06:29:30;;;;;;;6.23;3.40;;;;;;;8.43;80.88;94692.16;5010517;28;20181;-70
2023/12/13 06:31:55;;;;;;;4.93;3.40;;;;;;;8.48;80.42;94694.47;5011729;28;20249;-69
2023/12/13 06:34:21;;;;;;;10.90;3.10;;;;;;;8.49;80.90;94688.31;5011088;28;20653;-70
2023/12/13 06:36:46;;;;;;;4.33;3.10;;;;;;;8.41;80.27;94677.47;5010458;28;20204;-71
2023/12/13 06:39:11;;;;;;;6.60;4.00;;;;;;;8.48;80.68;94676.19;5010660;28;20287;-69
2023/12/13 06:41:39;;;;;;;4.30;3.10;;;;;;;8.54;80.59;94675.78;5009140;28;20967;-69
2023/12/13 06:44:05;;;;;;;4.37;3.23;;;;;;;8.42;80.90;94673.94;5009490;28;20749;-71
2023/12/13 06:46:30;;;;;;;5.33;3.60;;;;;;;8.33;82.02;94675.31;5005654;28;20434;-71
2023/12/13 06:48:55;;;;;;;5.40;3.60;;;;;;;8.31;81.69;94671.13;5013984;28;20182;-71
2023/12/13 06:51:21;;;;;;;15.13;5.83;;;;;;;8.10;82.59;94671.50;5011621;28;20196;-70
2023/12/13 06:53:46;;;;;;;22.43;5.40;;;;;;;8.18;82.74;94676.28;5010144;28;20199;-71
2023/12/13 06:56:12;;;;;;;7.80;3.80;;;;;;;8.12;82.91;94674.03;5008215;28;20204;-71
2023/12/13 06:58:38;;;;;;;15.33;4.53;;;;;;;8.41;82.23;94673.09;5002245;28;20231;-71
2023/12/13 07:01:04;;;;;;;7.37;3.37;;;;;;;8.52;81.31;94669.78;5008512;28;20447;-71
2023/12/13 07:03:30;;;;;;;3.50;3.20;;;;;;;8.52;81.46;94666.34;5010169;28;20592;-70
2023/12/13 07:05:55;;;;;;;15.03;5.00;;;;;;;8.59;80.78;94673.69;5010061;28;20423;-70
2023/12/13 07:08:20;;;;;;;6.67;4.20;;;;;;;8.56;81.04;94670.47;5011440;28;20259;-71
2023/12/13 07:10:46;;;;;;;3.97;3.00;;;;;;;8.53;80.67;94663.66;5011573;28;20200;-71
2023/12/13 07:13:11;;;;;;;4.37;3.57;;;;;;;8.45;81.19;94665.91;5012174;28;20204;-72
2023/12/13 07:15:37;;;;;;;7.20;3.73;;;;;;;8.32;81.87;94664.97;5011841;28;20222;-70
2023/12/13 07:18:02;;;;;;;5.73;3.60;;;;;;;8.54;81.61;94661.88;5010632;28;20184;-70
2023/12/13 07:20:30;;;;;;;4.87;3.43;;;;;;;8.48;81.19;94653.47;5011386;28;20247;-72
2023/12/13 07:22:56;;;;;;;3.27;2.87;;;;;;;8.45;81.95;94653.66;5010626;28;20527;-70
2023/12/13 07:25:22;;;;;;;6.93;3.43;;;;;;;8.45;82.06;94658.06;5009136;28;20423;-70
2023/12/13 07:27:47;;;;;;;5.83;3.67;;;;;;;8.57;80.71;94649.41;5007103;28;20451;-71
2023/12/13 07:30:13;;;;;;;6.83;4.10;;;;;;;8.53;81.32;94647.09;5009781;28;20302;-71
2023/12/13 07:32:41;;;;;;;9.07;4.17;;;;;;;8.48;81.67;94655.25;5009987;28;20182;-70
2023/12/13 07:35:08;;;;;;;3.97;3.07;;;;;;;8.28;82.03;94664.31;5009413;28;20204;-68
2023/12/13 07:37:35;;;;;;;5.17;4.60;;;;;;;8.38;81.21;94662.78;5008520;28;20540;-71
2023/12/13 07:40:00;;;;;;;17.97;4.93;;;;;;;8.42;82.01;94664.31;5008909;28;20442;-70
2023/12/13 07:42:27;;;;;;;8.03;4.20;;;;;;;8.35;81.78;94670.84;5004577;28;20443;-69
2023/12/13 07:44:53;;;;;;;4.90;4.13;;;;;;;8.29;82.62;94665.97;5006205;28;20204;-70
2023/12/13 07:47:18;;;;;;;7.80;4.23;;;;;;;8.45;81.40;94658.06;4997330;28;20458;-69
2023/12/13 07:49:43;;;;;;;6.50;4.10;;;;;;;8.53;81.60;94662.78;5005352;28;20204;-69
2023/12/13 07:52:09;;;;;;;7.23;4.20;;;;;;;8.40;82.02;94660.13;5008085;28;20177;-70
2023/12/13 07:54:35;;;;;;;7.43;3.90;;;;;;;8.40;82.00;94658.34;5005459;28;20689;-71
2023/12/13 07:57:00;;;;;;;5.90;4.13;;;;;;;8.38;81.27;94652.34;5004338;28;20239;-69
2023/12/13 07:59:26;;;;;;;5.40;4.13;;;;;;;8.43;81.44;94649.47;5002239;28;20439;-70
2023/12/13 08:01:51;;;;;;;7.07;4.40;;;;;;;8.51;81.47;94649.84;5003263;28;20295;-69
2023/12/13 08:04:16;;;;;;;8.40;4.53;;;;;;;8.66;80.86;94646.22;5001819;28;20651;-71
2023/12/13 08:06:42;;;;;;;14.90;4.93;;;;;;;8.72;80.06;94651.97;5003897;28;20195;-69
2023/12/13 08:09:10;;;;;;;7.17;4.40;;;;;;;8.74;79.72;94650.13;5005594;28;20722;-71
2023/12/13 08:11:36;;;;;;;5.77;4.07;;;;;;;8.87;79.72;94653.63;5005580;28;20208;-69
2023/12/13 08:14:03;;;;;;;23.97;5.50;;;;;;;8.84;80.17;94654.66;5006854;28;20467;-70
2023/12/13 08:16:28;;;;;;;12.93;4.40;;;;;;;8.78;79.81;94657.66;5006949;28;20606;-69
2023/12/13 08:18:54;;;;;;;11.00;5.13;;;;;;;8.90;79.70;94645.56;5006030;28;20537;-72
2023/12/13 08:21:26;;;;;;;11.03;5.00;;;;;;;8.87;79.22;94651.00;5006484;28;20293;-69
2023/12/13 08:23:52;;;;;;;71.70;11.43;;;;;;;8.90;79.54;94650.78;4999261;28;21122;-70
2023/12/13 08:26:17;;;;;;;28.03;6.77;;;;;;;8.91;79.48;94647.25;5007206;28;20426;-70
2023/12/13 08:28:43;;;;;;;15.57;5.03;;;;;;;9.00;79.30;94651.88;5004922;28;20645;-70
2023/12/13 08:31:11;;;;;;;53.70;9.20;;;;;;;8.94;79.25;94656.69;5005145;28;20738;-70
2023/12/13 08:33:39;;;;;;;13.40;4.57;;;;;;;9.01;79.49;94652.72;5005504;28;20650;-70
2023/12/13 08:36:09;;;;;;;14.80;4.80;;;;;;;9.08;79.13;94648.75;5004881;28;20467;-68
2023/12/13 08:38:34;;;;;;;9.77;4.57;;;;;;;9.25;78.76;94638.00;5006767;28;20580;-69
2023/12/13 08:40:59;;;;;;;8.17;4.53;;;;;;;9.21;78.74;94643.53;5006481;28;20542;-68
2023/12/13 08:43:25;;;;;;;9.33;4.37;;;;;;;9.24;78.36;94638.13;5006062;28;20172;-70
2023/12/13 08:45:51;;;;;;;6.60;4.03;;;;;;;9.32;77.91;94641.06;4998815;28;20173;-68
2023/12/13 08:48:17;;;;;;;8.13;4.70;;;;;;;9.42;77.95;94644.72;5006493;28;20806;-70
2023/12/13 08:50:42;;;;;;;6.77;4.10;;;;;;;9.30;78.01;94643.75;5007074;28;20204;-70
2023/12/13 08:53:08;;;;;;;5.40;3.80;;;;;;;9.23;78.12;94641.66;5008202;28;20175;-71
2023/12/13 08:55:33;;;;;;;5.50;3.70;;;;;;;9.20;78.35;94644.50;5008431;28;20208;-70
2023/12/13 08:57:58;;;;;;;5.60;4.10;;;;;;;9.22;78.86;94634.75;5008414;28;20180;-70
2023/12/13 09:00:24;;;;;;;6.97;4.67;;;;;;;9.20;78.64;94637.47;5002297;28;20201;-70
2023/12/13 09:02:49;;;;;;;9.53;4.07;;;;;;;9.27;78.63;94637.91;5007871;28;20260;-70
2023/12/13 09:05:15;;;;;;;5.40;4.20;;;;;;;9.16;78.59;94638.59;5007729;28;20176;-69
2023/12/13 09:07:40;;;;;;;8.73;4.43;;;;;;;9.21;78.73;94635.69;5006985;28;20661;-69
2023/12/13 09:10:08;;;;;;;8.60;4.20;;;;;;;9.17;78.94;94637.69;5005491;28;20278;-69
2023/12/13 09:12:33;;;;;;;7.70;3.67;;;;;;;9.19;78.80;94638.44;5005397;28;20206;-70
2023/12/13 09:14:58;;;;;;;6.57;3.70;;;;;;;9.08;78.70;94636.50;5005943;28;20450;-70
2023/12/13 09:17:24;;;;;;;8.83;3.43;;;;;;;9.25;78.37;94639.78;5004965;28;20870;-70
2023/12/13 09:19:49;;;;;;;4.20;3.40;;;;;;;9.16;78.68;94636.00;5003572;28;20307;-70
2023/12/13 09:22:16;;;;;;;5.60;3.97;;;;;;;9.17;78.67;94626.38;5005902;28;20192;-69
2023/12/13 09:24:41;;;;;;;7.17;3.60;;;;;;;9.05;78.97;94620.19;5005126;28;20246;-70
2023/12/13 09:27:07;;;;;;;4.93;3.67;;;;;;;9.14;78.92;94626.56;5005678;28;20439;-69
2023/12/13 09:29:32;;;;;;;4.37;3.30;;;;;;;9.28;78.95;94621.25;4990951;28;20187;-69
2023/12/13 09:31:58;;;;;;;4.90;3.77;;;;;;;9.18;79.93;94628.88;5006733;28;20585;-70
2023/12/13 09:34:23;;;;;;;13.03;4.10;;;;;;;9.26;79.56;94633.59;5006138;28;20180;-70
2023/12/13 09:36:49;;;;;;;6.53;4.10;;;;;;;9.28;79.75;94629.97;5003863;28;20524;-69
2023/12/13 09:39:16;;;;;;;5.80;4.33;;;;;;;9.19;79.56;94645.41;5006386;28;20184;-69
2023/12/13 09:42:02;;;;;;;13.53;4.03;;;;;;;9.36;79.02;94636.47;4988314;28;20232;-69
2023/12/13 09:44:29;;;;;;;12.03;3.90;;;;;;;9.24;79.15;94638.13;5004646;28;20438;-69
2023/12/13 09:46:58;;;;;;;11.13;4.17;;;;;;;9.29;79.31;94641.25;4985255;28;20432;-69
2023/12/13 09:49:24;;;;;;;6.30;4.20;;;;;;;9.30;79.64;94642.94;5001324;28;20955;-69
2023/12/13 09:51:50;;;;;;;9.33;3.83;;;;;;;9.41;79.14;94645.66;5007134;28;20435;-68
2023/12/13 09:54:16;;;;;;;3.80;3.40;;;;;;;9.40;78.80;94645.75;5008083;28;20442;-68
2023/12/13 09:56:41;;;;;;;3.20;2.50;;;;;;;9.36;78.68;94644.31;5007838;28;20517;-69
2023/12/13 09:59:06;;;;;;;3.00;2.70;;;;;;;9.42;78.90;94642.09;5008935;28;20226;-69
2023/12/13 10:01:32;;;;;;;3.43;2.90;;;;;;;9.39;78.88;94652.78;5000911;28;20804;-69
2023/12/13 10:03:57;;;;;;;5.37;3.27;;;;;;;9.44;78.37;94652.47;5009083;28;20172;-69
2023/12/13 10:06:23;;;;;;;5.77;3.17;;;;;;;9.53;78.16;94657.94;5006811;28;20191;-69
2023/12/13 10:08:54;;;;;;;3.70;3.37;;;;;;;9.47;78.75;94660.97;5005263;28;20184;-70
2023/12/13 10:11:20;;;;;;;4.93;3.00;;;;;;;9.46;79.06;94654.03;5000928;28;20260;-69
2023/12/13 10:13:45;;;;;;;2.77;2.50;;;;;;;9.48;78.47;94651.34;5006868;28;20522;-69
2023/12/13 10:16:11;;;;;;;6.70;3.03;;;;;;;9.43;79.31;94651.66;5020191;28;20348;-69
2023/12/13 10:18:37;;;;;;;4.07;2.57;;;;;;;9.37;79.75;94652.03;5021625;28;20183;-70
2023/12/13 10:21:03;;;;;;;6.93;2.90;;;;;;;9.36;79.54;94636.47;5020029;28;20210;-69
2023/12/13 10:23:29;;;;;;;6.50;2.40;;;;;;;9.43;79.52;94643.78;5006954;28;20433;-69
2023/12/13 10:25:54;;;;;;;4.83;2.10;;;;;;;9.56;78.99;94633.31;5007077;28;20427;-69
2023/12/13 10:28:20;;;;;;;8.07;2.70;;;;;;;9.55;79.09;94629.03;5004781;28;20929;-69
2023/12/13 10:30:49;;;;;;;17.77;4.03;;;;;;;9.59;79.81;94637.50;5004039;28;20574;-68
2023/12/13 10:33:15;;;;;;;24.33;4.97;;;;;;;9.52;79.50;94640.56;5005656;28;20199;-69
2023/12/13 10:35:41;;;;;;;72.70;9.63;;;;;;;9.57;79.43;94642.00;5004313;28;20494;-69
2023/12/13 10:38:10;;;;;;;48.23;7.80;;;;;;;9.55;79.56;94626.41;4999146;28;20172;-69
2023/12/13 10:40:35;;;;;;;9.03;3.03;;;;;;;9.52;79.50;94627.47;5005242;28;20206;-69
2023/12/13 10:43:04;;;;;;;7.70;2.00;;;;;;;9.57;79.00;94631.53;5003112;28;20562;-69
2023/12/13 10:45:30;;;;;;;4.67;3.10;;;;;;;9.72;78.39;94615.59;5002499;28;20706;-69
2023/12/13 10:48:00;;;;;;;8.53;2.53;;;;;;;9.56;79.47;94622.84;5005167;28;20434;-70
2023/12/13 10:50:28;;;;;;;8.00;2.53;;;;;;;9.62;78.59;94627.66;5004421;28;20504;-70
2023/12/13 10:52:55;;;;;;;4.03;2.27;;;;;;;9.60;78.96;94619.06;5004315;28;20464;-70
2023/12/13 10:55:22;;;;;;;5.53;2.10;;;;;;;9.70;78.30;94619.28;5008082;28;20484;-70
2023/12/13 10:57:48;;;;;;;4.30;2.17;;;;;;;9.71;78.00;94624.41;5008231;28;20469;-69
2023/12/13 11:00:15;;;;;;;5.80;2.83;;;;;;;9.79;78.77;94621.25;5009119;28;20937;-69
2023/12/13 11:02:59;;;;;;;3.03;2.03;;;;;;;9.83;77.90;94617.50;5009530;28;20180;-68
2023/12/13 11:05:25;;;;;;;2.57;1.80;;;;;;;9.78;78.36;94619.59;5008510;28;20426;-68
2023/12/13 11:07:52;;;;;;;2.97;2.30;;;;;;;9.83;77.58;94612.25;5008244;28;20909;-68
2023/12/13 11:10:17;;;;;;;3.80;2.60;;;;;;;9.80;77.77;94609.81;5008619;28;20863;-70
2023/12/13 11:12:50;;;;;;;3.73;2.20;;;;;;;9.77;78.03;94612.66;5000863;28;20446;-70
2023/12/13 11:15:17;;;;;;;3.00;2.23;;;;;;;9.82;78.40;94607.09;5002288;28;20200;-69
2023/12/13 11:17:45;;;;;;;4.63;2.13;;;;;;;9.96;77.21;94613.06;5008952;28;20438;-69
2023/12/13 11:20:13;;;;;;;5.03;2.57;;;;;;;10.00;76.79;94595.34;5004867;28;20444;-69
2023/12/13 11:22:42;;;;;;;9.33;3.23;;;;;;;10.09;77.18;94604.34;5005139;28;20471;-69
2023/12/13 11:25:08;;;;;;;7.57;2.20;;;;;;;10.03;77.46;94602.97;5000732;28;20419;-69
2023/12/13 11:27:33;;;;;;;8.20;2.53;;;;;;;10.11;76.83;94602.44;5006207;28;20497;-68
2023/12/13 11:30:12;;;;;;;5.10;2.10;;;;;;;10.06;76.20;94597.53;5008049;28;20203;-69
2023/12/13 11:32:37;;;;;;;11.00;2.90;;;;;;;10.07;76.13;94590.50;5008825;28;20716;-68
2023/12/13 11:35:17;;;;;;;7.63;2.80;;;;;;;10.03;76.48;94594.28;5008890;28;20439;-69
2023/12/13 11:37:48;;;;;;;10.43;3.37;;;;;;;9.93;77.21;94596.72;5008289;28;20259;-70